Time;durP1;ratioP1;P1;durP2;ratioP2;P2;SDS_P1;SDS_P2;PMS_P1;PMS_P2;Temp;Humidity;BMP_temperature;BMP_pressure;BME280_temperature;BME280_humidity;BME280_pressure;Samples;Min_cycle;Max_cycle;Signal;HPM_P1;HPM_P2
2021/03/01 00:00:08;;;;;;;83.28;37.65;;;;;;;5.77;73.04;102656.38;4421984;32;20081;-77
2021/03/01 00:02:34;;;;;;;83.53;36.28;;;;;;;5.80;73.02;102656.44;4413009;32;20362;-78
2021/03/01 00:05:00;;;;;;;76.85;35.83;;;;;;;5.78;73.03;102652.41;4412095;32;20060;-77
2021/03/01 00:07:25;;;;;;;75.75;36.25;;;;;;;5.79;72.72;102649.25;4406786;32;20030;-76
2021/03/01 00:09:51;;;;;;;72.82;36.00;;;;;;;5.69;72.96;102654.56;4412272;32;20046;-78
2021/03/01 00:12:16;;;;;;;76.15;35.00;;;;;;;5.65;73.17;102660.03;4421840;32;20477;-79
2021/03/01 00:14:42;;;;;;;77.40;34.55;;;;;;;5.59;73.81;102653.09;4421613;32;20034;-77
2021/03/01 00:17:08;;;;;;;82.90;36.08;;;;;;;5.51;73.98;102659.69;4418655;32;20076;-77
2021/03/01 00:19:34;;;;;;;77.43;37.60;;;;;;;5.58;73.91;102650.66;4419298;32;20049;-76
2021/03/01 00:21:59;;;;;;;75.28;35.60;;;;;;;5.61;73.63;102647.97;4409846;32;20022;-78
2021/03/01 00:24:25;;;;;;;82.80;37.38;;;;;;;5.61;73.69;102649.94;4419747;32;20026;-77
2021/03/01 00:26:51;;;;;;;81.15;35.97;;;;;;;5.63;72.72;102653.19;4421794;32;20059;-77
2021/03/01 00:29:16;;;;;;;82.60;35.33;;;;;;;5.75;72.81;102656.75;4418267;32;20129;-78
2021/03/01 00:31:42;;;;;;;76.22;35.65;;;;;;;5.60;72.69;102645.53;4417968;32;20080;-78
2021/03/01 00:34:07;;;;;;;76.82;36.05;;;;;;;5.59;73.27;102660.69;4429518;26;21009;-78
2021/03/01 00:36:33;;;;;;;80.03;34.78;;;;;;;5.50;73.34;102658.03;4423199;32;20131;-78
2021/03/01 00:39:00;;;;;;;84.47;37.20;;;;;;;5.53;73.59;102651.72;4436218;32;20092;-77
2021/03/01 00:41:26;;;;;;;76.82;34.25;;;;;;;5.57;73.47;102658.25;4436785;32;20029;-79
2021/03/01 00:43:51;;;;;;;75.53;35.85;;;;;;;5.62;73.33;102654.38;4421222;32;20068;-77
2021/03/01 00:46:17;;;;;;;83.95;38.40;;;;;;;5.62;73.25;102655.16;4437004;32;20075;-77
2021/03/01 00:48:42;;;;;;;81.15;35.45;;;;;;;5.57;73.28;102651.84;4431964;32;20097;-78
2021/03/01 00:51:09;;;;;;;78.28;34.67;;;;;;;5.53;73.10;102651.72;4433631;32;20422;-78
2021/03/01 00:53:34;;;;;;;75.80;33.25;;;;;;;5.60;73.22;102651.94;4436624;32;20037;-77
2021/03/01 00:56:00;;;;;;;75.60;35.38;;;;;;;5.67;72.68;102640.94;4420977;32;20096;-78
2021/03/01 00:58:26;;;;;;;73.50;33.85;;;;;;;5.57;72.46;102643.47;4435248;32;20045;-78
2021/03/01 01:00:52;;;;;;;74.95;34.25;;;;;;;5.48;72.76;102648.41;4436632;32;20064;-78
2021/03/01 01:03:19;;;;;;;84.93;36.13;;;;;;;5.53;73.05;102642.56;4435804;32;20061;-77
2021/03/01 01:05:45;;;;;;;75.20;34.92;;;;;;;5.50;72.97;102638.50;4432667;32;20529;-76
2021/03/01 01:08:11;;;;;;;69.78;32.50;;;;;;;5.45;73.36;102649.94;4435798;32;20046;-76
2021/03/01 01:10:38;;;;;;;76.10;33.67;;;;;;;5.47;72.54;102639.22;4435432;32;20026;-77
2021/03/01 01:13:05;;;;;;;72.37;34.40;;;;;;;5.46;72.83;102636.81;4428144;32;20065;-76
2021/03/01 01:15:31;;;;;;;78.82;35.65;;;;;;;5.53;73.12;102636.97;4430272;32;20056;-77
2021/03/01 01:17:56;;;;;;;72.70;33.67;;;;;;;5.52;72.99;102633.37;4430007;32;20091;-75
2021/03/01 01:20:22;;;;;;;74.80;35.75;;;;;;;5.60;72.96;102634.38;4422985;32;20053;-75
2021/03/01 01:22:48;;;;;;;77.28;34.55;;;;;;;5.60;72.16;102635.19;4434016;32;20060;-75
2021/03/01 01:25:15;;;;;;;72.82;36.08;;;;;;;5.57;72.15;102629.50;4419779;32;20030;-77
2021/03/01 01:27:41;;;;;;;74.47;34.20;;;;;;;5.63;72.11;102631.69;4433658;32;20026;-76
2021/03/01 01:30:10;;;;;;;71.85;32.53;;;;;;;5.64;72.08;102630.50;4435035;32;20033;-76
2021/03/01 01:32:36;;;;;;;74.57;32.33;;;;;;;5.63;71.69;102634.47;4435865;32;20072;-77
2021/03/01 01:35:05;;;;;;;66.45;31.15;;;;;;;5.53;71.66;102621.00;4426370;32;20042;-77
2021/03/01 01:37:31;;;;;;;72.43;32.72;;;;;;;5.49;71.98;102624.91;4420683;32;20042;-76
2021/03/01 01:39:56;;;;;;;69.50;31.15;;;;;;;5.38;72.21;102624.62;4430596;32;20056;-76
2021/03/01 01:42:22;;;;;;;73.15;32.60;;;;;;;5.31;72.36;102626.41;4435397;32;20045;-76
2021/03/01 01:44:48;;;;;;;73.80;31.23;;;;;;;5.20;73.07;102619.72;4436143;32;20049;-79
2021/03/01 01:47:13;;;;;;;67.00;32.65;;;;;;;5.17;73.13;102607.28;4435862;32;20177;-75
2021/03/01 01:49:39;;;;;;;64.25;31.58;;;;;;;4.97;73.37;102611.09;4434819;32;20064;-77
2021/03/01 01:52:05;;;;;;;60.15;30.75;;;;;;;4.93;74.13;102612.16;4432767;32;20462;-76
2021/03/01 01:54:31;;;;;;;69.43;32.28;;;;;;;4.86;74.63;102607.19;4419064;32;20077;-73
2021/03/01 01:56:57;;;;;;;72.10;31.65;;;;;;;4.84;74.82;102606.72;4431601;32;20054;-76
2021/03/01 01:59:23;;;;;;;63.87;29.05;;;;;;;4.79;74.79;102601.41;4420917;32;20076;-75
2021/03/01 02:01:49;;;;;;;68.20;30.12;;;;;;;4.82;74.77;102603.47;4436014;32;20075;-75
2021/03/01 02:17:15;;;;;;;65.05;27.92;;;;;;;5.19;73.14;102602.16;3998635;32;15023135;-78
2021/03/01 02:19:40;;;;;;;66.85;27.13;;;;;;;5.19;73.14;102602.16;4447193;32;20051;-77
2021/03/01 02:22:06;;;;;;;61.25;26.45;;;;;;;4.69;74.20;102585.16;4447892;32;20041;-78
2021/03/01 02:24:38;;;;;;;55.40;24.30;;;;;;;4.69;74.63;102589.97;4448473;32;20105;-76
2021/03/01 02:27:05;;;;;;;54.55;26.55;;;;;;;4.70;74.29;102586.81;4448554;32;20068;-76
2021/03/01 02:29:33;;;;;;;54.63;24.83;;;;;;;4.68;74.60;102586.34;4447909;32;20051;-76
2021/03/01 02:32:01;;;;;;;53.38;24.05;;;;;;;4.72;74.19;102578.09;4449372;32;20053;-78
2021/03/01 02:34:34;;;;;;;50.17;22.70;;;;;;;4.66;72.92;102574.72;4444597;32;20438;-77
2021/03/01 02:37:04;;;;;;;44.78;20.80;;;;;;;4.62;73.72;102575.78;4439275;32;20128;-76
2021/03/01 02:39:32;;;;;;;46.20;19.50;;;;;;;4.62;74.05;102575.78;4436846;32;20401;-76
2021/03/01 02:41:59;;;;;;;51.03;23.42;;;;;;;4.59;74.28;102571.72;4449120;32;20029;-78
2021/03/01 02:44:26;;;;;;;52.40;23.10;;;;;;;4.55;74.25;102562.47;4442035;32;20029;-78
2021/03/01 02:46:53;;;;;;;59.20;25.37;;;;;;;4.60;74.10;102566.97;4432136;32;20014;-78
2021/03/01 02:49:18;;;;;;;52.00;23.73;;;;;;;4.53;74.40;102561.16;4432796;32;20114;-76
2021/03/01 02:51:48;;;;;;;58.97;26.73;;;;;;;4.53;74.49;102564.78;4431466;32;20046;-76
2021/03/01 02:54:16;;;;;;;49.70;24.90;;;;;;;4.48;74.32;102558.66;4430829;32;20041;-76
2021/03/01 02:56:45;;;;;;;56.33;23.90;;;;;;;4.37;74.85;102555.56;4435876;32;20033;-77
2021/03/01 02:59:11;;;;;;;53.40;24.60;;;;;;;4.33;75.45;102551.03;4447350;32;20025;-78
2021/03/01 03:01:38;;;;;;;53.38;24.60;;;;;;;4.31;75.81;102545.81;4447171;32;20055;-77
2021/03/01 03:04:06;;;;;;;57.88;25.10;;;;;;;4.30;76.08;102554.53;4437027;32;20084;-78
2021/03/01 03:06:35;;;;;;;55.33;24.08;;;;;;;4.24;76.29;102553.97;4447703;32;20074;-77
2021/03/01 03:09:01;;;;;;;54.50;24.63;;;;;;;4.30;76.31;102551.72;4446152;32;20041;-77
2021/03/01 03:11:28;;;;;;;60.90;23.58;;;;;;;4.28;75.76;102552.09;4434710;32;20086;-78
2021/03/01 03:13:56;;;;;;;45.00;20.83;;;;;;;4.27;75.48;102546.88;4446543;32;20460;-77
2021/03/01 03:16:24;;;;;;;45.55;20.80;;;;;;;4.27;75.19;102549.66;4436525;32;20049;-78
2021/03/01 03:18:53;;;;;;;49.17;20.60;;;;;;;4.22;75.43;102547.91;4431676;32;20038;-77
2021/03/01 03:21:19;;;;;;;39.97;19.12;;;;;;;4.21;75.53;102556.63;4440462;32;20132;-78
2021/03/01 03:23:45;;;;;;;45.05;19.17;;;;;;;4.18;75.66;102554.53;4434609;32;20128;-77
2021/03/01 03:26:13;;;;;;;44.70;18.98;;;;;;;4.16;75.60;102546.53;4433042;32;20354;-78
2021/03/01 03:28:42;;;;;;;42.40;18.65;;;;;;;4.18;75.60;102546.19;4433445;32;20125;-77
2021/03/01 03:31:08;;;;;;;39.95;18.87;;;;;;;4.16;75.69;102549.31;4429514;32;20100;-77
2021/03/01 03:33:36;;;;;;;48.83;19.25;;;;;;;4.17;75.56;102545.37;4421569;32;20026;-77
2021/03/01 03:36:02;;;;;;;47.83;19.35;;;;;;;4.17;75.60;102548.16;4423592;32;20057;-78
2021/03/01 03:38:33;;;;;;;52.80;20.05;;;;;;;4.21;75.48;102551.87;4420496;32;20034;-77
2021/03/01 03:41:01;;;;;;;48.25;19.00;;;;;;;4.29;75.14;102548.13;4422689;32;20062;-77
2021/03/01 03:43:28;;;;;;;49.20;18.55;;;;;;;4.31;74.88;102539.41;4431726;32;20065;-76
2021/03/01 03:45:57;;;;;;;40.85;17.27;;;;;;;4.27;74.61;102547.69;4432785;32;20071;-77
2021/03/01 03:48:26;;;;;;;42.38;17.52;;;;;;;4.23;74.45;102543.97;4421889;32;20358;-77
2021/03/01 03:50:58;;;;;;;41.17;18.02;;;;;;;4.18;74.72;102533.88;4436777;32;20058;-77
2021/03/01 03:53:27;;;;;;;41.63;18.80;;;;;;;4.20;74.88;102541.09;4436691;32;20033;-76
2021/03/01 03:55:56;;;;;;;41.15;17.83;;;;;;;4.19;74.75;102543.03;4437610;32;20056;-77
2021/03/01 03:58:27;;;;;;;40.25;17.45;;;;;;;4.15;74.49;102537.34;4425081;32;20034;-76
2021/03/01 04:00:54;;;;;;;40.05;17.75;;;;;;;4.13;74.54;102533.31;4422225;32;20053;-78
2021/03/01 04:03:22;;;;;;;38.78;17.75;;;;;;;4.03;74.82;102531.00;4420890;32;20034;-77
2021/03/01 04:05:50;;;;;;;46.53;18.12;;;;;;;3.96;74.95;102534.38;4420040;32;20038;-78
2021/03/01 04:08:16;;;;;;;38.45;17.67;;;;;;;3.92;75.25;102527.91;4434595;32;20064;-77
2021/03/01 04:10:45;;;;;;;36.53;16.17;;;;;;;3.98;75.08;102532.06;4421905;32;20026;-77
2021/03/01 04:13:14;;;;;;;46.92;16.80;;;;;;;4.03;74.96;102542.94;4419686;32;20097;-76
2021/03/01 04:15:45;;;;;;;40.85;17.60;;;;;;;4.00;74.97;102532.53;4426663;32;20413;-77
2021/03/01 04:18:13;;;;;;;38.03;17.45;;;;;;;4.00;75.16;102540.88;4419261;32;20034;-77
2021/03/01 04:20:40;;;;;;;33.53;16.67;;;;;;;3.97;74.93;102521.28;4421943;32;20069;-77
2021/03/01 04:23:06;;;;;;;37.90;16.87;;;;;;;3.90;74.80;102533.00;4434715;32;20072;-76
2021/03/01 04:25:33;;;;;;;40.33;17.73;;;;;;;3.88;74.83;102521.41;4424513;32;20061;-77
2021/03/01 04:28:02;;;;;;;34.13;15.52;;;;;;;3.87;74.70;102524.53;4430275;32;20110;-78
2021/03/01 04:30:28;;;;;;;40.70;16.55;;;;;;;3.76;75.12;102520.59;4436921;32;20029;-76
2021/03/01 04:32:55;;;;;;;37.40;15.57;;;;;;;3.76;75.32;102515.03;4429278;32;20132;-77
2021/03/01 04:35:23;;;;;;;38.83;16.80;;;;;;;3.69;75.13;102520.38;4434557;32;20030;-78
2021/03/01 04:37:48;;;;;;;37.50;16.70;;;;;;;3.73;75.29;102522.13;4421653;32;20093;-77
2021/03/01 04:40:15;;;;;;;38.42;16.55;;;;;;;3.73;75.21;102522.13;4417834;32;20042;-76
2021/03/01 04:42:44;;;;;;;33.17;17.23;;;;;;;3.73;75.19;102513.75;4431996;32;20030;-76
2021/03/01 04:45:12;;;;;;;33.55;15.80;;;;;;;3.71;74.78;102518.03;4420155;32;20090;-77
2021/03/01 04:47:41;;;;;;;35.60;16.48;;;;;;;3.69;74.89;102518.37;4421101;32;20022;-78
2021/03/01 04:50:11;;;;;;;31.42;14.32;;;;;;;3.70;75.04;102516.44;4434288;32;20046;-76
2021/03/01 04:52:38;;;;;;;32.50;14.40;;;;;;;3.69;74.87;102514.81;4427335;32;20042;-78
2021/03/01 04:55:06;;;;;;;31.27;13.93;;;;;;;3.66;74.88;102512.72;4436905;32;20034;-78
2021/03/01 04:57:32;;;;;;;36.72;15.05;;;;;;;3.59;75.13;102509.72;4434708;32;20362;-78
2021/03/01 04:59:59;;;;;;;31.83;14.82;;;;;;;3.59;75.07;102518.84;4419423;32;20051;-78
2021/03/01 05:02:27;;;;;;;32.35;14.38;;;;;;;3.60;75.00;102519.69;4421827;32;20079;-77
2021/03/01 05:04:52;;;;;;;36.97;15.98;;;;;;;3.55;75.22;102514.34;4433073;32;20026;-77
2021/03/01 05:07:19;;;;;;;35.53;15.25;;;;;;;3.50;75.23;102515.38;4421475;32;20068;-77
2021/03/01 05:09:46;;;;;;;30.25;13.70;;;;;;;3.52;75.39;102524.22;4431090;32;20078;-77
2021/03/01 05:12:12;;;;;;;33.67;14.43;;;;;;;3.45;75.22;102521.19;4420625;32;20022;-78
2021/03/01 05:14:37;;;;;;;30.60;14.68;;;;;;;3.45;75.37;102512.03;4421325;32;20038;-78
2021/03/01 05:17:03;;;;;;;45.38;19.60;;;;;;;3.44;75.49;102516.78;4419721;32;20044;-78
2021/03/01 05:19:31;;;;;;;432.40;98.80;;;;;;;3.45;75.49;102510.06;4418685;32;20167;-77
2021/03/01 05:21:57;;;;;;;129.60;36.60;;;;;;;3.39;75.21;102519.81;4421028;32;20063;-78
2021/03/01 05:24:23;;;;;;;78.20;23.70;;;;;;;3.32;75.42;102513.97;4431756;32;20022;-78
2021/03/01 05:26:49;;;;;;;76.75;23.30;;;;;;;3.33;75.21;102512.00;4425252;32;20081;-80
2021/03/01 05:29:16;;;;;;;48.33;17.33;;;;;;;3.34;75.26;102508.06;4427730;32;20071;-78
2021/03/01 05:31:41;;;;;;;50.95;17.67;;;;;;;3.33;75.24;102514.78;4435152;32;20077;-77
2021/03/01 05:34:07;;;;;;;38.67;15.82;;;;;;;3.27;75.13;102505.06;4435640;32;20470;-79
2021/03/01 05:36:32;;;;;;;40.78;16.83;;;;;;;3.30;75.35;102510.75;4424865;32;20046;-77
2021/03/01 05:38:58;;;;;;;37.67;14.13;;;;;;;3.29;75.33;102505.53;4430090;32;20139;-77
2021/03/01 05:41:25;;;;;;;34.50;15.07;;;;;;;3.29;75.42;102499.97;4436037;32;20438;-78
2021/03/01 05:43:52;;;;;;;38.65;17.98;;;;;;;3.32;75.21;102505.63;4434449;32;20053;-79
2021/03/01 05:46:19;;;;;;;38.38;15.20;;;;;;;3.32;75.32;102513.19;4420195;32;20393;-77
2021/03/01 05:48:46;;;;;;;38.33;15.65;;;;;;;3.32;75.37;102510.41;4428936;32;20033;-79
2021/03/01 05:51:14;;;;;;;38.30;15.95;;;;;;;3.38;75.40;102514.59;4434886;32;20037;-78
2021/03/01 05:53:46;;;;;;;36.13;16.15;;;;;;;3.47;75.42;102512.50;4435313;32;20037;-79
2021/03/01 05:56:13;;;;;;;40.20;17.25;;;;;;;3.47;75.24;102512.50;4426798;32;20045;-77
2021/03/01 05:58:40;;;;;;;33.72;15.90;;;;;;;3.43;75.34;102503.19;4418569;32;20110;-78
2021/03/01 06:01:06;;;;;;;37.92;16.52;;;;;;;3.58;75.40;102508.06;4419209;32;20030;-79
2021/03/01 06:03:33;;;;;;;33.95;15.57;;;;;;;3.60;74.93;102505.75;4428184;32;20070;-77
2021/03/01 06:06:00;;;;;;;35.47;14.40;;;;;;;3.70;74.60;102513.63;4427538;32;20083;-78
2021/03/01 06:08:26;;;;;;;32.80;14.30;;;;;;;3.82;74.71;102508.06;4416891;32;20065;-78
2021/03/01 06:11:00;;;;;;;31.15;13.57;;;;;;;3.95;74.40;102509.66;4427609;32;20025;-78
2021/03/01 06:13:26;;;;;;;27.73;12.85;;;;;;;4.06;73.70;102508.03;4434984;32;20026;-77
2021/03/01 06:15:54;;;;;;;34.95;14.35;;;;;;;4.19;73.31;102512.41;4428854;32;20033;-78
2021/03/01 06:18:21;;;;;;;30.55;13.15;;;;;;;4.25;72.92;102508.19;4433557;32;20022;-79
2021/03/01 06:20:47;;;;;;;31.75;13.38;;;;;;;4.30;72.73;102510.75;4425838;32;20068;-77
2021/03/01 06:23:29;;;;;;;29.25;13.20;;;;;;;4.38;72.70;102503.41;4421236;32;20035;-78
2021/03/01 06:25:55;;;;;;;29.73;13.90;;;;;;;4.35;72.37;102504.91;4428879;32;20108;-78
2021/03/01 06:28:27;;;;;;;34.97;12.90;;;;;;;4.43;72.88;102519.88;4419406;32;20030;-78
2021/03/01 06:30:53;;;;;;;29.00;13.05;;;;;;;4.62;72.08;102518.06;4420486;32;20064;-78
2021/03/01 06:33:22;;;;;;;26.75;12.70;;;;;;;4.51;72.21;102508.56;4426210;32;20054;-78
2021/03/01 06:35:51;;;;;;;33.70;13.80;;;;;;;4.67;72.52;102505.81;4434328;32;20065;-78
2021/03/01 06:41:16;;;;;;;35.88;15.73;;;;;;;5.47;70.83;102518.34;4022578;31;15014271;-77
2021/03/01 06:44:01;;;;;;;36.78;16.35;;;;;;;5.47;70.83;102518.34;4480855;32;20408;-78
2021/03/01 06:46:29;;;;;;;;;;;;;;;5.17;70.81;102511.56;4481174;32;20074;-80
2021/03/01 06:48:55;;;;;;;37.20;14.90;;;;;;;5.26;70.88;102515.00;4471147;32;20321;-78
2021/03/01 06:51:21;;;;;;;37.00;16.73;;;;;;;5.21;71.01;102512.47;4464827;32;20056;-78
2021/03/01 06:54:02;;;;;;;31.70;16.12;;;;;;;5.32;71.15;102517.19;4466668;32;20044;-79
2021/03/01 06:56:43;;;;;;;35.13;15.73;;;;;;;5.42;70.43;102525.00;4480647;32;20080;-78
2021/03/01 06:59:14;;;;;;;47.53;20.90;;;;;;;5.48;70.20;102526.34;4469124;32;20076;-79
2021/03/01 07:04:25;;;;;;;55.55;23.95;;;;;;;5.59;70.48;102513.44;3987847;32;15025751;-79
2021/03/01 07:06:54;;;;;;;49.22;20.50;;;;;;;5.62;70.74;102509.16;4449230;32;20017;-78
2021/03/01 07:09:25;;;;;;;50.15;23.23;;;;;;;5.60;70.64;102515.09;4438609;32;20056;-78
2021/03/01 07:11:51;;;;;;;50.42;21.92;;;;;;;5.62;71.26;102514.72;4444383;32;20057;-79
2021/03/01 07:14:19;;;;;;;52.05;22.42;;;;;;;5.63;71.25;102513.53;4448122;32;20111;-79
2021/03/01 07:17:00;;;;;;;57.47;23.85;;;;;;;5.87;70.65;102510.56;4439410;32;20068;-78
2021/03/01 07:19:29;;;;;;;58.80;25.35;;;;;;;5.98;70.24;102512.44;4447411;32;20033;-77
2021/03/01 07:21:57;;;;;;;58.35;23.20;;;;;;;6.07;69.86;102515.84;4447310;32;20092;-77
2021/03/01 07:24:25;;;;;;;65.15;24.77;;;;;;;6.01;70.46;102516.47;4440172;32;20465;-75
2021/03/01 07:26:53;;;;;;;66.30;25.50;;;;;;;6.08;70.22;102528.63;4444540;32;20021;-76
2021/03/01 07:29:21;;;;;;;65.93;25.55;;;;;;;6.05;69.78;102523.75;4437785;32;20059;-76
2021/03/01 07:34:35;;;;;;;62.83;26.52;;;;;;;6.74;68.87;102538.81;3964950;32;15729443;-75
2021/03/01 07:37:03;;;;;;;68.28;28.87;;;;;;;6.74;68.87;102538.81;4444050;32;20079;-75
2021/03/01 07:39:31;;;;;;;63.97;27.08;;;;;;;6.29;69.87;102530.28;4443380;32;20303;-75
2021/03/01 07:41:58;;;;;;;79.03;36.60;;;;;;;6.44;69.92;102535.81;4443321;32;20101;-78
2021/03/01 07:44:27;;;;;;;65.87;27.70;;;;;;;6.43;69.71;102525.81;4447289;32;20489;-77
2021/03/01 07:46:54;;;;;;;61.88;27.02;;;;;;;6.44;68.95;102535.00;4441486;32;20045;-77
2021/03/01 07:49:43;;;;;;;62.85;27.40;;;;;;;6.55;69.06;102519.25;4440780;32;20368;-78
2021/03/01 07:58:00;;;;;;;67.35;27.00;;;;;;;7.30;67.06;102532.31;3990195;32;15023021;-76
2021/03/01 08:00:29;;;;;;;67.37;28.15;;;;;;;7.30;67.06;102532.31;4435146;32;20130;-76
2021/03/01 08:02:55;;;;;;;68.75;30.48;;;;;;;6.92;68.64;102534.38;4439992;32;20111;-76
2021/03/01 08:05:27;;;;;;;74.57;32.72;;;;;;;6.94;68.99;102527.25;4434982;32;20060;-76
2021/03/01 08:07:53;;;;;;;71.25;27.30;;;;;;;7.05;68.90;102530.22;4445515;32;20030;-75
2021/03/01 08:13:15;;;;;;;72.97;30.40;;;;;;;7.28;68.75;102533.88;3991785;32;15023238;-76
2021/03/01 08:15:43;;;;;;;70.75;29.55;;;;;;;7.28;68.75;102533.88;4436486;32;20472;-76
2021/03/01 08:18:11;;;;;;;73.68;27.15;;;;;;;6.88;69.72;102537.12;4438504;32;20543;-76
2021/03/01 08:20:40;;;;;;;56.85;23.60;;;;;;;6.91;70.34;102538.37;4441305;32;20083;-76
2021/03/01 08:30:54;;;;;;;49.92;19.67;;;;;;;7.05;70.45;102541.44;3985201;32;15024300;-76
2021/03/01 08:38:53;;;;;;;68.07;24.80;;;;;;;6.80;71.92;102534.53;3999685;31;15015165;-74
2021/03/01 08:44:19;;;;;;;61.00;26.70;;;;;;;7.56;71.34;102542.78;3968996;32;15022686;-75
2021/03/01 08:46:45;;;;;;;67.55;27.50;;;;;;;7.56;71.34;102542.78;4416278;32;20057;-75
2021/03/01 08:49:11;;;;;;;78.60;27.25;;;;;;;7.19;71.64;102542.53;4424250;32;20026;-75
2021/03/01 08:51:36;;;;;;;70.53;29.17;;;;;;;7.38;72.08;102547.25;4425443;32;20149;-75
2021/03/01 08:54:02;;;;;;;73.12;29.23;;;;;;;7.47;71.93;102547.81;4420152;32;20109;-76
2021/03/01 08:56:28;;;;;;;80.18;30.35;;;;;;;7.45;72.02;102541.75;4418724;32;20425;-75
2021/03/01 08:58:54;;;;;;;85.87;35.97;;;;;;;7.44;72.00;102545.75;4405701;32;20115;-74
2021/03/01 09:01:20;;;;;;;74.22;31.45;;;;;;;7.40;72.76;102551.28;4404439;32;20084;-72
2021/03/01 09:03:46;;;;;;;82.25;33.03;;;;;;;7.27;72.61;102547.06;4409151;32;20424;-80
2021/03/01 09:08:55;;;;;;;87.67;34.47;;;;;;;7.74;72.50;102539.06;3999077;31;15016895;-80
2021/03/01 09:11:30;;;;;;;88.62;35.40;;;;;;;7.74;72.50;102539.06;4453918;32;20151;-80
2021/03/01 09:14:00;;;;;;;104.60;39.67;;;;;;;7.22;73.61;102543.75;4457414;32;20063;-78
2021/03/01 09:16:28;;;;;;;96.20;40.45;;;;;;;7.19;74.30;102545.34;4453505;32;20021;-78
2021/03/01 09:19:05;;;;;;;107.65;44.00;;;;;;;7.23;74.53;102546.19;4449515;32;20103;-79
2021/03/01 09:21:34;;;;;;;113.40;43.33;;;;;;;7.25;74.75;102545.81;4449795;32;20081;-75
2021/03/01 09:24:01;;;;;;;126.57;48.95;;;;;;;7.31;74.61;102542.34;4440697;32;20047;-76
2021/03/01 09:29:17;;;;;;;125.62;47.00;;;;;;;8.14;73.41;102553.31;3989673;32;15026547;-78
2021/03/01 09:34:26;;;;;;;135.77;52.10;;;;;;;8.32;73.17;102547.19;3991475;31;15047309;-75
2021/03/01 09:36:52;;;;;;;127.87;47.25;;;;;;;8.32;73.17;102547.19;4441569;32;20088;-79
2021/03/01 09:39:21;;;;;;;111.88;43.67;;;;;;;7.80;73.24;102553.59;4439248;32;20841;-78
2021/03/01 09:41:49;;;;;;;114.47;44.83;;;;;;;7.79;73.80;102546.34;4456001;32;20095;-77
2021/03/01 09:44:34;;;;;;;115.75;44.03;;;;;;;7.95;74.51;102547.81;4455074;32;20471;-77
2021/03/01 09:47:01;;;;;;;113.00;42.90;;;;;;;8.04;74.00;102553.19;4456852;32;20067;-78
2021/03/01 09:49:30;;;;;;;93.87;39.13;;;;;;;7.98;73.67;102557.47;4456569;32;20136;-78
2021/03/01 09:51:57;;;;;;;98.85;39.50;;;;;;;8.00;74.02;102555.09;4461223;32;20548;-78
2021/03/01 09:54:25;;;;;;;97.40;40.42;;;;;;;8.00;73.44;102558.72;4457761;32;20491;-78
2021/03/01 09:56:53;;;;;;;103.30;40.55;;;;;;;7.97;73.28;102548.25;4460826;32;20060;-78
2021/03/01 10:02:15;;;;;;;97.15;38.33;;;;;;;8.65;73.33;102556.44;3996530;32;15024383;-77
2021/03/01 10:04:42;;;;;;;102.50;39.63;;;;;;;8.65;73.33;102556.44;4446770;32;20037;-77
2021/03/01 10:07:19;;;;;;;103.87;40.15;;;;;;;8.34;73.80;102548.41;4446311;32;20030;-76
2021/03/01 10:09:46;;;;;;;109.05;40.35;;;;;;;8.39;72.26;102547.28;4448377;32;20535;-78
2021/03/01 10:12:12;;;;;;;88.55;35.90;;;;;;;8.61;72.42;102552.78;4449368;32;20021;-75
2021/03/01 10:14:39;;;;;;;68.07;29.12;;;;;;;8.64;70.89;102546.41;4445946;32;20072;-75
2021/03/01 10:17:25;;;;;;;78.15;31.58;;;;;;;8.63;70.43;102544.81;4451038;32;20091;-76
2021/03/01 10:19:51;;;;;;;72.57;30.80;;;;;;;8.62;72.15;102545.19;4448793;32;20073;-76
2021/03/01 10:22:17;;;;;;;66.05;26.80;;;;;;;8.49;72.30;102535.37;4433279;32;20203;-74
2021/03/01 10:27:22;;;;;;;61.60;27.48;;;;;;;8.86;71.66;102548.28;4004240;31;15050844;-75
2021/03/01 10:29:52;;;;;;;76.53;35.92;;;;;;;8.86;71.66;102548.28;4462467;32;20664;-74
2021/03/01 10:32:22;;;;;;;67.25;28.87;;;;;;;8.49;72.41;102539.00;4455097;32;20376;-74
2021/03/01 10:34:49;;;;;;;60.95;26.45;;;;;;;8.56;72.99;102538.31;4469534;32;20128;-74
2021/03/01 10:37:16;;;;;;;72.32;29.00;;;;;;;8.76;73.22;102529.31;4452721;32;20426;-73
2021/03/01 10:39:44;;;;;;;69.30;30.52;;;;;;;8.86;73.76;102528.63;4445898;32;21479;-74
2021/03/01 10:42:13;;;;;;;71.85;29.37;;;;;;;9.00;73.13;102537.22;4459970;32;20037;-76
2021/03/01 10:44:42;;;;;;;70.93;27.25;;;;;;;9.07;71.94;102531.69;4462157;32;20477;-74
2021/03/01 10:47:21;;;;;;;65.35;26.85;;;;;;;9.08;72.01;102532.50;4448770;32;20087;-74
2021/03/01 10:49:48;;;;;;;63.53;27.58;;;;;;;9.08;72.22;102540.94;4457963;32;20048;-75
2021/03/01 10:52:17;;;;;;;73.22;28.58;;;;;;;9.15;72.30;102546.62;4461781;32;20071;-76
2021/03/01 10:54:43;;;;;;;68.75;26.75;;;;;;;9.03;71.16;102530.84;4451616;32;20088;-76
2021/03/01 10:57:12;;;;;;;70.00;29.50;;;;;;;9.07;71.96;102537.31;4451553;32;20044;-76
2021/03/01 10:59:38;;;;;;;62.83;26.30;;;;;;;9.23;72.77;102534.22;4445487;32;20100;-76
2021/03/01 11:02:04;;;;;;;63.92;27.85;;;;;;;9.27;71.93;102537.91;4458753;32;20060;-76
2021/03/01 11:04:30;;;;;;;56.63;25.62;;;;;;;9.57;71.90;102533.78;4455027;32;20053;-81
2021/03/01 11:06:56;;;;;;;49.20;21.62;;;;;;;9.77;70.85;102535.16;4462036;32;20071;-75
2021/03/01 11:09:35;;;;;;;44.38;20.98;;;;;;;9.68;69.14;102528.25;4450021;32;20045;-75
2021/03/01 11:12:03;;;;;;;34.83;15.55;;;;;;;9.94;69.18;102537.28;4451872;32;20041;-76
2021/03/01 11:14:48;;;;;;;33.67;13.93;;;;;;;10.01;68.05;102544.97;4453608;32;20142;-76
2021/03/01 11:17:13;;;;;;;33.33;15.45;;;;;;;10.17;67.50;102539.06;4439129;32;20054;-75
2021/03/01 11:19:39;;;;;;;41.22;16.33;;;;;;;9.97;67.48;102538.50;4457430;32;20088;-76
2021/03/01 11:22:05;;;;;;;33.25;15.40;;;;;;;9.94;67.35;102528.84;4445542;32;20041;-76
2021/03/01 11:24:32;;;;;;;39.20;17.08;;;;;;;9.93;67.42;102537.66;4452400;32;20091;-76
2021/03/01 11:26:58;;;;;;;36.78;15.95;;;;;;;9.86;67.92;102526.38;4453272;32;20045;-78
2021/03/01 11:29:24;;;;;;;35.22;15.75;;;;;;;9.90;68.34;102536.44;4457958;32;20058;-79
2021/03/01 11:31:51;;;;;;;34.63;15.45;;;;;;;9.74;67.35;102530.31;4458714;32;20048;-77
2021/03/01 11:34:17;;;;;;;34.92;14.60;;;;;;;9.84;68.02;102523.12;4456315;32;20046;-76
2021/03/01 11:36:43;;;;;;;36.10;15.90;;;;;;;9.89;67.66;102525.59;4436235;32;20121;-79
2021/03/01 11:39:11;;;;;;;39.20;17.55;;;;;;;9.89;67.92;102532.03;4447747;32;20032;-79
2021/03/01 11:41:38;;;;;;;47.13;18.85;;;;;;;9.92;67.55;102531.22;4441272;32;20510;-82
2021/03/01 11:44:04;;;;;;;43.83;16.92;;;;;;;9.51;68.65;102528.91;4437459;32;20438;-75
2021/03/01 11:46:31;;;;;;;43.85;17.87;;;;;;;9.36;68.91;102525.13;4442649;32;20048;-78
2021/03/01 11:48:57;;;;;;;43.55;18.90;;;;;;;9.63;68.62;102528.59;4432266;32;20072;-77
2021/03/01 11:51:23;;;;;;;51.88;21.15;;;;;;;9.36;68.44;102516.72;4446971;32;20096;-81
2021/03/01 11:53:49;;;;;;;46.37;20.30;;;;;;;9.47;69.78;102523.25;4436941;32;20037;-78
2021/03/01 11:56:14;;;;;;;44.90;19.77;;;;;;;9.59;68.35;102531.37;4443472;32;20125;-78
2021/03/01 11:58:41;;;;;;;49.28;20.10;;;;;;;9.73;67.85;102516.66;4442725;32;20018;-78
2021/03/01 12:01:08;;;;;;;55.75;23.00;;;;;;;9.67;66.82;102529.44;4450224;32;20041;-78
2021/03/01 12:03:35;;;;;;;53.75;20.42;;;;;;;9.75;67.54;102531.09;4421651;32;20054;-76
2021/03/01 12:06:02;;;;;;;53.72;24.37;;;;;;;9.76;67.31;102519.47;4439208;32;20092;-77
2021/03/01 12:08:28;;;;;;;69.28;29.42;;;;;;;9.66;67.48;102513.75;4435287;32;20060;-78
2021/03/01 12:10:54;;;;;;;69.50;29.60;;;;;;;9.52;67.49;102517.28;4441763;32;20053;-77
2021/03/01 12:13:20;;;;;;;80.65;32.35;;;;;;;9.47;68.26;102512.00;4440481;32;20422;-78
2021/03/01 12:15:50;;;;;;;71.32;30.52;;;;;;;9.46;68.34;102515.19;4448806;32;20048;-77
2021/03/01 12:18:16;;;;;;;68.03;27.83;;;;;;;9.50;68.66;102511.22;4441555;32;20047;-78